Time;durP1;ratioP1;P1;durP2;ratioP2;P2;SDS_P1;SDS_P2;PMS_P1;PMS_P2;Temp;Humidity;BMP_temperature;BMP_pressure;BME280_temperature;BME280_humidity;BME280_pressure;Samples;Min_cycle;Max_cycle;Signal;HPM_P1;HPM_P2
2022/10/16 00:01:28;;;;;;;11.57;9.73;;;;;;;11.66;100.00;155453.47;5010028;28;20041;-79
2022/10/16 00:03:55;;;;;;;11.38;9.32;;;;;;;11.58;100.00;155432.91;4993076;28;20049;-79
2022/10/16 00:06:22;;;;;;;14.57;9.15;;;;;;;11.50;100.00;155413.66;5017052;28;20101;-80
2022/10/16 00:08:49;;;;;;;11.60;9.30;;;;;;;11.50;100.00;155413.66;4978340;28;20095;-79
2022/10/16 00:11:18;;;;;;;11.65;8.88;;;;;;;11.56;100.00;155427.78;5010600;28;20042;-81
2022/10/16 00:13:46;;;;;;;11.07;9.27;;;;;;;11.52;100.00;155417.53;4992454;28;20065;-80
2022/10/16 00:16:13;;;;;;;14.85;9.00;;;;;;;11.49;100.00;155412.38;5024199;28;20442;-78
2022/10/16 00:18:39;;;;;;;15.23;9.05;;;;;;;11.44;100.00;155399.53;5006403;28;20056;-80
2022/10/16 00:21:08;;;;;;;10.68;8.30;;;;;;;11.43;100.00;155395.69;4993990;28;20068;-78
2022/10/16 00:23:54;;;;;;;10.23;7.72;;;;;;;11.41;100.00;155391.81;5006452;28;20033;-79
2022/10/16 00:26:20;;;;;;;14.18;8.30;;;;;;;11.39;100.00;155386.69;5005702;28;20026;-80
2022/10/16 00:28:47;;;;;;;13.48;7.72;;;;;;;11.44;100.00;155399.53;5005582;28;20081;-79
2022/10/16 00:31:19;;;;;;;9.27;7.10;;;;;;;11.39;100.00;155386.69;5006584;28;20137;-80
2022/10/16 00:33:45;;;;;;;11.48;7.35;;;;;;;11.43;100.00;155395.69;4991634;28;20063;-77
2022/10/16 00:36:14;;;;;;;10.55;7.30;;;;;;;11.39;100.00;155385.41;4997574;28;20486;-78
2022/10/16 00:38:40;;;;;;;7.28;6.45;;;;;;;11.44;100.00;155398.25;5005007;28;20040;-79
2022/10/16 00:41:07;;;;;;;7.97;7.18;;;;;;;11.45;100.00;155402.13;5008981;28;20042;-79
2022/10/16 00:43:43;;;;;;;11.68;9.07;;;;;;;11.47;100.00;155405.94;4993994;28;20037;-82
2022/10/16 00:46:17;;;;;;;15.82;8.65;;;;;;;11.48;100.00;155408.53;5025388;28;20044;-78
2022/10/16 00:48:56;;;;;;;12.43;8.77;;;;;;;11.49;100.00;155412.38;5008672;28;20034;-81
2022/10/16 00:51:30;;;;;;;13.80;8.73;;;;;;;11.48;100.00;155409.81;4985788;28;20565;-79
2022/10/16 00:53:57;;;;;;;9.77;8.50;;;;;;;11.53;100.00;155421.38;5007765;28;20033;-79
2022/10/16 00:56:27;;;;;;;14.73;9.13;;;;;;;11.53;100.00;155420.06;4997717;28;20450;-79
2022/10/16 00:58:53;;;;;;;12.27;9.80;;;;;;;11.50;100.00;155413.66;5010929;28;20036;-80
2022/10/16 01:01:18;;;;;;;14.07;9.80;;;;;;;11.51;100.00;155416.25;5008234;28;20778;-80
2022/10/16 01:03:44;;;;;;;12.98;9.95;;;;;;;11.62;100.00;155443.16;4995057;28;20104;-79
2022/10/16 01:06:24;;;;;;;12.43;9.80;;;;;;;11.57;100.00;155430.38;4997186;28;20033;-79
2022/10/16 01:08:56;;;;;;;13.57;9.63;;;;;;;11.65;100.00;155452.16;4976995;28;20038;-78
2022/10/16 01:11:26;;;;;;;15.55;10.38;;;;;;;11.64;100.00;155449.63;5000697;28;20396;-79
2022/10/16 01:13:58;;;;;;;12.13;9.63;;;;;;;11.71;100.00;155465.00;5005712;28;20038;-80
2022/10/16 01:16:39;;;;;;;12.20;8.77;;;;;;;11.67;100.00;155457.28;5025440;28;20050;-81
2022/10/16 01:19:31;;;;;;;10.73;8.80;;;;;;;11.71;100.00;155466.28;4990676;28;20053;-79
2022/10/16 01:21:58;;;;;;;16.23;8.13;;;;;;;11.71;100.00;155466.28;5020502;28;20073;-78
2022/10/16 01:24:30;;;;;;;9.10;8.00;;;;;;;11.70;100.00;155463.75;5008763;28;20157;-79
2022/10/16 01:27:09;;;;;;;13.98;7.90;;;;;;;11.74;100.00;155474.00;5008080;28;20037;-80
2022/10/16 01:29:48;;;;;;;11.80;7.75;;;;;;;11.61;100.00;155441.91;5007733;28;20036;-78
2022/10/16 01:32:32;;;;;;;11.73;8.07;;;;;;;11.52;100.00;155418.78;4982094;28;20046;-80
2022/10/16 01:35:05;;;;;;;9.25;7.47;;;;;;;11.47;100.00;155405.94;5005657;28;20022;-80
2022/10/16 01:38:00;;;;;;;8.00;7.18;;;;;;;11.39;100.00;155386.69;5008009;28;20753;-80
2022/10/16 01:40:30;;;;;;;10.35;6.40;;;;;;;11.30;100.00;155363.56;4991467;28;20052;-81
2022/10/16 01:43:00;;;;;;;12.95;6.13;;;;;;;11.34;100.00;155372.56;4995997;28;20080;-80
2022/10/16 01:45:30;;;;;;;9.40;6.18;;;;;;;11.33;100.00;155370.03;4994651;28;20041;-78
2022/10/16 01:47:58;;;;;;;9.57;5.50;;;;;;;11.22;100.00;155343.06;5011042;28;20034;-80
2022/10/16 01:50:24;;;;;;;12.60;5.53;;;;;;;11.11;100.00;155316.09;4992260;28;20045;-80
2022/10/16 01:52:52;;;;;;;6.90;5.20;;;;;;;11.10;100.00;155313.56;4999998;28;20376;-80
2022/10/16 01:55:30;;;;;;;11.27;5.30;;;;;;;11.09;100.00;155312.28;5008793;28;20132;-80
2022/10/16 01:57:59;;;;;;;7.60;4.53;;;;;;;11.19;100.00;155335.34;5006851;28;20041;-79
2022/10/16 02:00:26;;;;;;;9.23;4.93;;;;;;;11.09;100.00;155310.97;5009332;28;20045;-78
2022/10/16 02:02:55;;;;;;;8.38;4.70;;;;;;;11.13;100.00;155319.97;5006565;28;20040;-79
2022/10/16 02:05:38;;;;;;;9.27;4.88;;;;;;;11.12;100.00;155318.69;5010089;28;20034;-79
2022/10/16 02:08:04;;;;;;;7.60;5.30;;;;;;;11.15;100.00;155326.41;5007560;28;20034;-79
2022/10/16 02:10:30;;;;;;;7.00;4.60;;;;;;;11.15;100.00;155326.41;5004737;28;20404;-79
2022/10/16 02:13:28;;;;;;;11.90;4.55;;;;;;;11.17;100.00;155330.22;5004352;28;20037;-78
2022/10/16 02:15:57;;;;;;;5.30;4.53;;;;;;;11.18;100.00;155334.06;5000571;28;20045;-79
2022/10/16 02:18:23;;;;;;;8.15;4.40;;;;;;;11.26;100.00;155354.63;5022892;28;20069;-80
2022/10/16 02:20:57;;;;;;;9.60;4.43;;;;;;;11.23;100.00;155346.91;5004793;28;20061;-79
2022/10/16 02:23:45;;;;;;;5.25;4.18;;;;;;;11.19;100.00;155336.66;5015233;28;20061;-78
2022/10/16 02:26:19;;;;;;;8.25;3.80;;;;;;;11.08;100.00;155308.44;5028022;28;20044;-78
2022/10/16 02:28:49;;;;;;;5.90;3.67;;;;;;;10.97;100.00;155281.47;5007662;28;20033;-79
2022/10/16 02:31:22;;;;;;;9.15;3.80;;;;;;;10.99;100.00;155286.59;5011383;28;20141;-79
2022/10/16 02:33:52;;;;;;;8.23;3.42;;;;;;;10.92;100.00;155268.63;5026885;28;20459;-79
2022/10/16 02:36:18;;;;;;;8.35;3.75;;;;;;;10.95;100.00;155276.34;5028880;28;20056;-78
2022/10/16 02:38:45;;;;;;;7.93;2.92;;;;;;;10.91;100.00;155267.34;5024461;28;20567;-78
2022/10/16 02:41:11;;;;;;;5.80;3.25;;;;;;;10.90;100.00;155263.50;5008178;28;20033;-78
2022/10/16 02:43:36;;;;;;;7.45;3.72;;;;;;;10.86;100.00;155253.22;5028218;28;20030;-79
2022/10/16 02:46:02;;;;;;;5.68;3.05;;;;;;;10.76;100.00;155227.59;5011845;28;20041;-78
2022/10/16 02:48:28;;;;;;;6.47;2.88;;;;;;;10.71;100.00;155216.03;5002953;28;20034;-80
2022/10/16 02:50:53;;;;;;;9.77;3.00;;;;;;;10.70;100.00;155213.47;5027892;28;20033;-80
2022/10/16 02:53:19;;;;;;;7.40;3.05;;;;;;;10.69;100.00;155212.16;4995581;28;20053;-80
2022/10/16 02:55:45;;;;;;;4.65;2.83;;;;;;;10.56;100.00;155178.81;5009865;28;20034;-80
2022/10/16 02:58:10;;;;;;;5.25;2.60;;;;;;;10.51;100.00;155166.00;5010690;28;20463;-81
2022/10/16 03:00:36;;;;;;;4.78;3.00;;;;;;;10.47;100.00;155157.03;5010165;28;20033;-79
2022/10/16 03:03:02;;;;;;;7.20;2.67;;;;;;;10.43;100.00;155146.72;5010598;28;20041;-80
2022/10/16 03:05:27;;;;;;;9.07;2.50;;;;;;;10.41;100.00;155141.59;5017699;28;20590;-79
2022/10/16 03:07:53;;;;;;;5.05;2.80;;;;;;;10.42;100.00;155144.19;5012707;28;20073;-80
2022/10/16 03:10:18;;;;;;;8.70;3.00;;;;;;;10.29;100.00;155110.78;5012040;28;20044;-79
2022/10/16 03:12:44;;;;;;;5.35;2.60;;;;;;;10.25;100.00;155100.53;5029074;28;20480;-80
2022/10/16 03:15:10;;;;;;;3.15;2.33;;;;;;;10.32;100.00;155119.81;4997741;28;20048;-78
2022/10/16 03:17:36;;;;;;;4.80;2.40;;;;;;;10.36;100.00;155128.81;5006972;28;20100;-80
2022/10/16 03:20:02;;;;;;;11.15;2.70;;;;;;;10.45;100.00;155151.91;5028588;28;20780;-79
2022/10/16 03:22:27;;;;;;;6.38;2.30;;;;;;;10.37;100.00;155130.06;5029357;28;20072;-80
2022/10/16 03:24:53;;;;;;;7.57;2.35;;;;;;;10.40;100.00;155137.78;5013749;28;20034;-79
2022/10/16 03:27:18;;;;;;;4.22;2.13;;;;;;;10.45;100.00;155151.91;5014430;28;20491;-80
2022/10/16 03:29:44;;;;;;;5.10;2.40;;;;;;;10.49;100.00;155160.84;5015199;28;20037;-79
2022/10/16 03:32:10;;;;;;;9.32;2.50;;;;;;;10.37;100.00;155131.34;4996977;28;20400;-78
2022/10/16 03:34:35;;;;;;;10.07;3.10;;;;;;;10.41;100.00;155141.59;5033629;28;20033;-79
2022/10/16 03:37:01;;;;;;;10.05;2.42;;;;;;;10.44;100.00;155149.31;5014872;28;20455;-79
2022/10/16 03:39:27;;;;;;;5.47;2.50;;;;;;;10.50;100.00;155163.44;5029179;28;20068;-80
2022/10/16 03:41:52;;;;;;;5.72;2.40;;;;;;;10.46;100.00;155154.44;5029359;28;20036;-80
2022/10/16 03:44:18;;;;;;;9.00;2.45;;;;;;;10.42;100.00;155144.19;4997099;28;20374;-79
2022/10/16 03:46:44;;;;;;;7.18;2.10;;;;;;;10.33;100.00;155121.09;5012660;28;20459;-79
2022/10/16 03:49:09;;;;;;;15.77;2.92;;;;;;;10.27;100.00;155106.94;5027232;28;20061;-78
2022/10/16 03:51:35;;;;;;;8.88;2.50;;;;;;;10.24;100.00;155099.22;5012282;28;20503;-79
2022/10/16 03:54:01;;;;;;;4.38;2.40;;;;;;;10.28;100.00;155108.19;5013080;28;20087;-80
2022/10/16 03:56:27;;;;;;;3.70;2.28;;;;;;;10.32;100.00;155118.50;5017076;28;20072;-79
2022/10/16 03:58:53;;;;;;;10.75;2.67;;;;;;;10.19;100.00;155086.44;5011316;28;20081;-79
2022/10/16 04:01:18;;;;;;;8.05;2.40;;;;;;;10.33;100.00;155122.38;5012717;28;20037;-80
2022/10/16 04:03:44;;;;;;;11.68;2.72;;;;;;;10.28;100.00;155109.53;5025545;28;20029;-78
2022/10/16 04:06:09;;;;;;;8.73;2.38;;;;;;;10.28;100.00;155108.19;5012867;28;20038;-79
2022/10/16 04:08:36;;;;;;;7.00;2.47;;;;;;;10.23;100.00;155096.69;5012063;28;20400;-80
2022/10/16 04:11:03;;;;;;;6.85;2.20;;;;;;;10.24;100.00;155099.22;5030009;28;20100;-78
2022/10/16 04:13:29;;;;;;;6.30;2.03;;;;;;;10.22;100.00;155094.09;5013142;28;20045;-81
2022/10/16 04:15:54;;;;;;;5.15;2.00;;;;;;;10.24;100.00;155097.94;5020272;28;20380;-79
2022/10/16 04:18:21;;;;;;;5.97;1.95;;;;;;;10.22;100.00;155092.81;5011636;28;20029;-79
2022/10/16 04:20:46;;;;;;;6.53;2.35;;;;;;;10.17;100.00;155081.31;5012317;28;20376;-79
2022/10/16 04:23:12;;;;;;;6.30;1.85;;;;;;;10.21;100.00;155091.56;4994566;28;20483;-82
2022/10/16 04:25:37;;;;;;;7.82;2.38;;;;;;;10.14;100.00;155073.59;5026911;28;20037;-78
2022/10/16 04:28:03;;;;;;;4.03;1.80;;;;;;;10.13;100.00;155072.31;5025764;28;20025;-79
2022/10/16 04:30:28;;;;;;;5.35;2.28;;;;;;;10.10;100.00;155064.59;5025181;28;20034;-80
2022/10/16 04:32:54;;;;;;;10.70;2.15;;;;;;;10.08;100.00;155059.47;5009970;28;20839;-80
2022/10/16 04:35:21;;;;;;;8.52;2.15;;;;;;;10.08;100.00;155059.47;4998214;28;20042;-78
2022/10/16 04:37:46;;;;;;;15.40;2.20;;;;;;;10.04;100.00;155049.22;5009890;28;20121;-79
2022/10/16 04:40:13;;;;;;;11.27;2.08;;;;;;;9.94;100.00;155024.88;4993007;28;20129;-80
2022/10/16 04:42:38;;;;;;;11.60;2.40;;;;;;;9.77;100.00;154981.25;4994571;28;20037;-79
2022/10/16 04:45:05;;;;;;;11.23;2.33;;;;;;;9.92;100.00;155018.44;5024533;28;20045;-78
2022/10/16 04:47:31;;;;;;;7.22;2.25;;;;;;;9.79;100.00;154985.09;5008288;28;20030;-79
2022/10/16 04:49:56;;;;;;;8.63;2.42;;;;;;;9.79;100.00;154985.09;5008857;28;20405;-78
2022/10/16 04:52:24;;;;;;;7.65;2.38;;;;;;;9.90;100.00;155013.31;5008872;28;20038;-78
2022/10/16 04:54:50;;;;;;;8.43;2.67;;;;;;;10.04;100.00;155047.91;4998456;28;20038;-81
2022/10/16 04:57:17;;;;;;;8.82;2.55;;;;;;;10.10;100.00;155064.59;5011079;28;20048;-79
2022/10/16 04:59:42;;;;;;;4.65;2.40;;;;;;;10.23;100.00;155096.69;5001552;28;20051;-80
2022/10/16 05:02:08;;;;;;;10.85;2.63;;;;;;;10.13;100.00;155071.00;4993780;28;20492;-79
2022/10/16 05:04:34;;;;;;;6.05;2.40;;;;;;;10.13;100.00;155071.00;5002861;28;20037;-80
2022/10/16 05:07:00;;;;;;;8.30;2.30;;;;;;;10.09;100.00;155060.75;5009267;28;20077;-81
2022/10/16 05:09:25;;;;;;;5.55;2.42;;;;;;;10.07;100.00;155055.63;5000733;28;20149;-80
2022/10/16 05:11:51;;;;;;;7.93;2.85;;;;;;;10.21;100.00;155090.22;5011646;28;20096;-79
2022/10/16 05:14:17;;;;;;;6.50;3.17;;;;;;;10.25;100.00;155100.53;5025824;28;20037;-79
2022/10/16 05:16:42;;;;;;;13.38;2.88;;;;;;;10.31;100.00;155115.97;4991891;28;20041;-80
2022/10/16 05:19:07;;;;;;;6.97;2.50;;;;;;;10.24;100.00;155099.22;5025433;28;20041;-79
2022/10/16 05:21:33;;;;;;;8.52;2.85;;;;;;;10.23;100.00;155096.69;5006974;28;20495;-80
2022/10/16 05:23:59;;;;;;;5.95;2.70;;;;;;;10.24;100.00;155099.22;4991752;28;20100;-80
2022/10/16 05:26:24;;;;;;;11.27;2.38;;;;;;;10.22;100.00;155092.81;5025413;28;20033;-81
2022/10/16 05:28:50;;;;;;;6.22;2.47;;;;;;;10.23;100.00;155095.41;5025342;28;20029;-79
2022/10/16 05:31:15;;;;;;;5.20;2.28;;;;;;;10.23;100.00;155095.41;5006983;28;20053;-80
2022/10/16 05:33:41;;;;;;;4.70;2.33;;;;;;;10.23;100.00;155096.69;5025485;28;20053;-80
2022/10/16 05:36:08;;;;;;;3.38;2.20;;;;;;;10.27;100.00;155105.66;5010322;28;20510;-79
2022/10/16 05:38:35;;;;;;;8.77;2.40;;;;;;;10.28;100.00;155108.19;5024870;28;20053;-80
2022/10/16 05:41:01;;;;;;;7.97;2.40;;;;;;;10.27;100.00;155106.94;5006259;28;20084;-78
2022/10/16 05:43:28;;;;;;;5.35;2.30;;;;;;;10.25;100.00;155101.81;5011034;28;20041;-80
2022/10/16 05:45:56;;;;;;;9.82;2.40;;;;;;;10.18;100.00;155083.84;5002775;28;20512;-80
2022/10/16 05:48:22;;;;;;;11.30;2.55;;;;;;;10.17;100.00;155079.97;5007584;28;20026;-80
2022/10/16 05:50:47;;;;;;;6.38;2.50;;;;;;;10.15;100.00;155076.13;5015717;28;20087;-80
2022/10/16 05:53:13;;;;;;;4.68;2.53;;;;;;;10.14;100.00;155074.84;5013346;28;20480;-80
2022/10/16 05:55:38;;;;;;;7.13;2.80;;;;;;;10.10;100.00;155063.34;4977245;28;20041;-77
2022/10/16 05:58:04;;;;;;;6.30;2.55;;;;;;;10.05;100.00;155051.75;5027789;28;20046;-80
2022/10/16 06:00:30;;;;;;;7.05;2.30;;;;;;;10.06;100.00;155053.09;5010590;28;20048;-79
2022/10/16 06:02:55;;;;;;;5.07;2.20;;;;;;;10.14;100.00;155074.84;5010227;28;20738;-79
2022/10/16 06:05:21;;;;;;;6.32;2.33;;;;;;;10.22;100.00;155092.81;5008254;28;20053;-79
2022/10/16 06:07:47;;;;;;;4.15;2.30;;;;;;;10.28;100.00;155109.53;5009648;28;20048;-79
2022/10/16 06:10:12;;;;;;;6.35;2.40;;;;;;;10.29;100.00;155112.06;5010306;28;20096;-80
2022/10/16 06:12:38;;;;;;;9.02;3.78;;;;;;;10.31;100.00;155115.97;5010974;28;20670;-80
2022/10/16 06:15:04;;;;;;;9.98;2.50;;;;;;;10.33;100.00;155122.38;4996786;28;20125;-81
2022/10/16 06:17:29;;;;;;;7.78;2.50;;;;;;;10.27;100.00;155105.66;5027437;28;20030;-80
2022/10/16 06:19:55;;;;;;;4.50;2.40;;;;;;;10.38;100.00;155133.94;5007296;28;20515;-81
2022/10/16 06:22:20;;;;;;;6.07;2.17;;;;;;;10.41;100.00;155141.59;5028760;28;20037;-81
2022/10/16 06:24:47;;;;;;;5.63;2.42;;;;;;;10.44;100.00;155149.31;5028663;28;20112;-80
2022/10/16 06:27:12;;;;;;;6.72;2.17;;;;;;;10.36;100.00;155127.50;5012843;28;20403;-80
2022/10/16 06:29:38;;;;;;;5.65;2.40;;;;;;;10.48;100.00;155158.31;5030888;28;20029;-79
2022/10/16 06:32:04;;;;;;;7.28;2.60;;;;;;;10.46;100.00;155154.44;5013902;28;20064;-82
2022/10/16 06:34:29;;;;;;;8.90;2.60;;;;;;;10.48;100.00;155159.56;4989422;28;20042;-80
2022/10/16 06:36:55;;;;;;;5.53;2.70;;;;;;;10.44;100.00;155148.03;5013076;28;20042;-81
2022/10/16 06:39:20;;;;;;;10.13;2.78;;;;;;;10.45;100.00;155151.91;5013409;28;20034;-80
2022/10/16 06:41:46;;;;;;;5.68;2.88;;;;;;;10.49;100.00;155162.16;5024560;28;20033;-81
2022/10/16 06:44:14;;;;;;;6.75;3.00;;;;;;;10.60;100.00;155189.06;5021016;28;20034;-79
2022/10/16 06:46:40;;;;;;;6.80;2.80;;;;;;;10.61;100.00;155190.38;5004788;28;20407;-81
2022/10/16 06:49:06;;;;;;;7.45;2.55;;;;;;;10.65;100.00;155200.63;5006018;28;20037;-80
2022/10/16 06:51:34;;;;;;;9.55;3.15;;;;;;;10.61;100.00;155190.38;5013706;28;20040;-81
2022/10/16 06:53:59;;;;;;;9.52;3.05;;;;;;;10.74;100.00;155223.72;5030251;28;20036;-80
2022/10/16 06:56:27;;;;;;;10.10;3.35;;;;;;;10.91;100.00;155266.06;5028063;28;20116;-80
2022/10/16 06:58:53;;;;;;;7.20;2.90;;;;;;;11.06;100.00;155304.56;5012166;28;20130;-79
2022/10/16 07:01:23;;;;;;;9.38;3.10;;;;;;;11.27;100.00;155357.19;5002907;28;20792;-79
2022/10/16 07:03:49;;;;;;;7.07;3.38;;;;;;;11.33;100.00;155371.31;5013024;28;20033;-79
2022/10/16 07:06:18;;;;;;;7.32;3.42;;;;;;;11.47;100.00;155405.94;5028946;28;20041;-80
2022/10/16 07:08:46;;;;;;;10.88;3.15;;;;;;;11.53;100.00;155420.06;5017210;28;20099;-80
2022/10/16 07:11:14;;;;;;;10.43;3.28;;;;;;;11.71;100.00;155466.28;5011353;28;20470;-79
2022/10/16 07:13:41;;;;;;;7.65;3.20;;;;;;;11.84;100.00;155499.66;5027776;28;20037;-79
2022/10/16 07:16:09;;;;;;;9.10;3.58;;;;;;;12.05;100.00;155552.41;5012686;28;20068;-78
2022/10/16 07:18:36;;;;;;;6.40;3.13;;;;;;;12.20;100.00;155588.31;5002897;28;20061;-80
2022/10/16 07:21:12;;;;;;;10.98;3.10;;;;;;;12.49;100.00;155660.25;4997689;28;20076;-79
2022/10/16 07:23:38;;;;;;;6.70;3.17;;;;;;;12.61;100.00;155691.09;4997214;28;20426;-81
2022/10/16 07:26:04;;;;;;;6.50;3.00;;;;;;;12.76;100.00;155729.63;5028432;28;20614;-80
2022/10/16 07:28:31;;;;;;;6.78;3.20;;;;;;;12.91;100.00;155766.88;5013268;28;20046;-79
2022/10/16 07:31:06;;;;;;;4.53;2.58;;;;;;;13.06;100.00;155804.16;5019141;28;20490;-80
2022/10/16 07:33:34;;;;;;;6.43;2.85;;;;;;;13.15;100.00;155826.00;5013202;28;20091;-81
2022/10/16 07:35:59;;;;;;;5.82;2.75;;;;;;;13.07;100.00;155806.69;5013004;28;20503;-79
2022/10/16 07:38:25;;;;;;;5.28;2.90;;;;;;;13.01;100.00;155792.56;5012137;28;20072;-78
2022/10/16 07:41:04;;;;;;;7.80;3.10;;;;;;;12.91;100.00;155765.59;5014613;28;20405;-80
2022/10/16 07:43:30;;;;;;;6.95;2.88;;;;;;;12.97;100.00;155781.00;5012000;28;20091;-81
2022/10/16 07:45:57;;;;;;;4.95;3.20;;;;;;;12.95;100.00;155777.16;5010112;28;20075;-79
2022/10/16 07:48:24;;;;;;;6.72;3.03;;;;;;;13.04;100.00;155800.28;5010599;28;20034;-79
2022/10/16 07:50:49;;;;;;;5.80;2.72;;;;;;;13.20;100.00;155840.16;5000571;28;20132;-80
2022/10/16 07:53:15;;;;;;;10.35;2.88;;;;;;;13.46;100.00;155903.16;5019742;28;20124;-80
2022/10/16 07:55:41;;;;;;;4.93;2.65;;;;;;;13.78;100.00;155984.13;5028227;28;20585;-79
2022/10/16 07:58:07;;;;;;;3.40;2.53;;;;;;;14.12;100.00;156068.97;5011322;28;20128;-81
2022/10/16 08:00:33;;;;;;;5.43;2.20;;;;;;;14.32;100.00;156120.41;5012926;28;20033;-80
2022/10/16 08:03:01;;;;;;;4.68;2.40;;;;;;;14.36;100.00;156130.69;5011769;28;20790;-81
2022/10/16 08:05:28;;;;;;;6.47;2.25;;;;;;;14.46;100.00;156153.84;5016197;28;20161;-81
2022/10/16 08:07:54;;;;;;;5.55;2.47;;;;;;;14.39;100.00;156138.41;5002957;28;20038;-79
2022/10/16 08:10:22;;;;;;;5.88;2.10;;;;;;;14.21;100.00;156092.13;5035439;28;20493;-78
2022/10/16 08:12:48;;;;;;;8.27;2.58;;;;;;;14.24;100.00;156099.84;5013695;28;20756;-79
2022/10/16 08:15:14;;;;;;;4.03;2.17;;;;;;;14.18;100.00;156085.72;5027325;28;20037;-80
2022/10/16 08:17:39;;;;;;;6.72;2.30;;;;;;;14.16;100.00;156080.53;5015863;28;20044;-78
2022/10/16 08:20:05;;;;;;;4.72;1.77;;;;;;;14.05;100.00;156052.25;5012819;28;20057;-77
2022/10/16 08:22:31;;;;;;;6.93;2.40;;;;;;;13.91;100.00;156016.25;5002986;28;20658;-78
2022/10/16 08:24:57;;;;;;;5.70;2.05;;;;;;;13.82;100.00;155995.72;5027571;28;20065;-80
2022/10/16 08:27:23;;;;;;;5.32;2.03;;;;;;;13.77;100.00;155981.56;5008995;28;20038;-80
2022/10/16 08:29:49;;;;;;;6.22;1.60;;;;;;;13.74;100.00;155975.13;5003920;28;20072;-80
2022/10/16 08:32:15;;;;;;;5.07;1.80;;;;;;;13.86;100.00;156004.66;4980555;28;20572;-80
2022/10/16 08:34:40;;;;;;;4.47;1.58;;;;;;;14.02;100.00;156045.81;5026513;28;20570;-79
2022/10/16 08:37:07;;;;;;;2.85;1.80;;;;;;;14.10;100.00;156063.84;5005603;28;20061;-79
2022/10/16 08:39:33;;;;;;;2.83;1.63;;;;;;;14.15;100.00;156077.97;5010515;28;20084;-80
2022/10/16 08:42:02;;;;;;;3.10;1.65;;;;;;;14.35;100.00;156128.16;5011548;28;20033;-79
2022/10/16 08:44:44;;;;;;;5.38;1.67;;;;;;;14.48;100.00;156160.25;5010397;28;20432;-79
2022/10/16 08:47:20;;;;;;;3.35;1.90;;;;;;;14.75;100.00;156227.22;5009693;28;20033;-79
2022/10/16 08:50:13;;;;;;;5.03;1.80;;;;;;;14.75;100.00;156228.50;5002028;28;20103;-80
2022/10/16 08:52:43;;;;;;;6.40;1.88;;;;;;;14.83;100.00;156247.78;5008738;28;20048;-79
2022/10/16 08:55:28;;;;;;;8.20;2.00;;;;;;;14.77;100.00;156233.63;5009058;28;20044;-78
2022/10/16 08:57:53;;;;;;;3.53;1.67;;;;;;;14.85;100.00;156251.66;5015143;28;20042;-77
2022/10/16 09:00:19;;;;;;;2.28;1.45;;;;;;;14.97;100.00;156282.50;5014524;28;20087;-79
2022/10/16 09:02:53;;;;;;;7.28;1.55;;;;;;;15.09;100.00;156312.13;5012729;28;20034;-80
2022/10/16 09:05:29;;;;;;;6.70;1.65;;;;;;;15.19;100.00;156337.84;5019670;28;20399;-78
2022/10/16 09:08:03;;;;;;;2.25;1.40;;;;;;;15.27;100.00;156358.41;5027514;28;20236;-78
2022/10/16 09:10:52;;;;;;;2.97;1.52;;;;;;;15.36;100.00;156380.28;5019434;28;20033;-79
2022/10/16 09:13:33;;;;;;;3.03;1.42;;;;;;;15.49;100.00;156413.75;5023760;28;20042;-79
2022/10/16 09:16:22;;;;;;;7.35;1.60;;;;;;;15.65;100.00;156452.34;5023495;28;20042;-81
2022/10/16 09:18:50;;;;;;;2.15;1.13;;;;;;;15.72;100.00;156470.38;5004098;28;20037;-79
2022/10/16 09:21:43;;;;;;;2.78;1.35;;;;;;;15.88;100.00;156510.28;5009179;28;20054;-80
2022/10/16 09:24:20;;;;;;;7.68;1.40;;;;;;;16.00;100.00;156539.94;5004293;28;20042;-80
2022/10/16 09:26:47;;;;;;;5.90;1.15;;;;;;;15.96;100.00;156532.19;5004010;28;20038;-79
2022/10/16 09:29:14;;;;;;;3.08;1.13;;;;;;;15.92;100.00;156520.63;5023568;28;20048;-79
2022/10/16 09:31:41;;;;;;;2.70;1.20;;;;;;;15.86;100.00;156505.16;5029898;28;20034;-80
2022/10/16 09:34:35;;;;;;;2.88;1.17;;;;;;;15.91;100.00;156518.03;5007670;28;20096;-79
2022/10/16 09:37:08;;;;;;;4.05;1.25;;;;;;;15.94;100.00;156525.78;5022279;28;20064;-80
2022/10/16 09:39:47;;;;;;;;;;;;;;;16.18;100.00;156586.28;5006971;28;20034;-79
2022/10/16 09:42:30;;;;;;;3.90;1.08;;;;;;;16.27;100.00;156609.41;5006054;28;19921;-79
2022/10/16 09:44:56;;;;;;;5.50;1.70;;;;;;;16.29;100.00;156614.59;5002532;28;20045;-80
2022/10/16 09:47:27;;;;;;;4.40;1.20;;;;;;;16.03;100.00;156547.63;4991417;28;20056;-76
2022/10/16 09:49:57;;;;;;;5.03;0.93;;;;;;;15.83;100.00;156497.47;5010923;28;20029;-76
2022/10/16 09:52:24;;;;;;;3.53;0.90;;;;;;;15.82;100.00;156496.13;5025916;28;20037;-76
2022/10/16 09:55:01;;;;;;;4.15;1.00;;;;;;;15.85;100.00;156502.59;4992379;28;20049;-77
2022/10/16 09:57:28;;;;;;;2.88;0.98;;;;;;;15.73;100.00;156474.28;5007973;28;20407;-77
2022/10/16 09:59:55;;;;;;;6.47;1.00;;;;;;;15.79;100.00;156488.44;4999877;28;20048;-75
2022/10/16 10:02:38;;;;;;;10.00;1.05;;;;;;;16.07;100.00;156559.25;4991572;28;20125;-76
2022/10/16 10:05:19;;;;;;;2.83;0.85;;;;;;;16.21;100.00;156592.72;5009919;28;20042;-75
2022/10/16 10:07:47;;;;;;;2.70;0.98;;;;;;;16.29;100.00;156613.28;5008825;28;20030;-75
2022/10/16 10:10:23;;;;;;;4.95;1.10;;;;;;;16.41;100.00;156642.94;5010049;28;20492;-76
2022/10/16 10:12:49;;;;;;;3.25;1.10;;;;;;;16.46;100.00;156657.09;5022865;28;20041;-76
2022/10/16 10:15:22;;;;;;;6.90;1.38;;;;;;;16.62;100.00;156695.72;5006876;28;20038;-76
2022/10/16 10:17:52;;;;;;;4.63;1.10;;;;;;;16.70;100.00;156717.56;5001369;28;20036;-77
2022/10/16 10:20:27;;;;;;;4.38;0.88;;;;;;;16.73;100.00;156724.03;4988551;28;20400;-77
2022/10/16 10:22:55;;;;;;;4.35;1.10;;;;;;;16.72;100.00;156721.44;5008880;28;20041;-76
2022/10/16 10:25:58;;;;;;;5.38;0.88;;;;;;;16.71;99.88;156718.91;5005913;28;20030;-76
2022/10/16 10:28:39;;;;;;;;;;;;;;;16.78;99.51;156735.63;4997428;28;20042;-78
2022/10/16 10:31:26;;;;;;;4.07;0.82;;;;;;;16.87;97.23;156760.13;5005724;28;19918;-77
2022/10/16 10:34:07;;;;;;;2.67;0.80;;;;;;;16.99;97.06;156789.78;5006456;28;20413;-78
2022/10/16 10:36:38;;;;;;;3.92;0.63;;;;;;;17.11;98.21;156820.66;5024410;28;20385;-76
2022/10/16 10:39:06;;;;;;;4.97;0.80;;;;;;;17.20;97.49;156842.56;5006342;28;20048;-77
2022/10/16 10:41:38;;;;;;;4.03;0.80;;;;;;;17.45;96.11;156904.41;5009389;28;20034;-76
2022/10/16 10:44:32;;;;;;;5.27;1.00;;;;;;;17.55;94.12;156930.16;5004779;28;20052;-77
2022/10/16 10:47:06;;;;;;;4.90;1.00;;;;;;;17.60;91.09;156941.78;5004561;28;20290;-77
2022/10/16 10:50:03;;;;;;;5.20;0.88;;;;;;;17.67;96.72;156961.09;5024424;28;20029;-77
2022/10/16 10:52:34;;;;;;;5.03;1.13;;;;;;;17.88;91.58;157012.69;5008102;28;20168;-76
2022/10/16 10:55:06;;;;;;;7.57;1.05;;;;;;;17.86;89.48;157007.53;5004530;28;20042;-77
2022/10/16 10:57:48;;;;;;;5.63;1.00;;;;;;;17.68;89.34;156962.38;5010569;28;20046;-77
2022/10/16 11:00:28;;;;;;;6.35;0.80;;;;;;;17.46;91.68;156906.97;5017273;28;20161;-77
2022/10/16 11:03:08;;;;;;;3.42;0.90;;;;;;;17.48;92.42;156912.16;5000027;28;20091;-79
2022/10/16 11:05:55;;;;;;;2.88;0.80;;;;;;;17.91;89.29;157020.38;5017256;28;20042;-78
2022/10/16 11:08:51;;;;;;;6.25;0.73;;;;;;;17.99;89.63;157039.72;5018927;28;20099;-75
2022/10/16 11:11:36;;;;;;;9.02;1.05;;;;;;;17.92;86.56;157023.00;4989285;28;20065;-76
2022/10/16 11:14:18;;;;;;;5.65;1.35;;;;;;;17.97;88.04;157034.56;5005270;28;20100;-76
2022/10/16 11:16:52;;;;;;;6.57;0.90;;;;;;;18.07;88.75;157060.38;5014314;28;20553;-77
2022/10/16 11:19:43;;;;;;;4.95;0.85;;;;;;;18.17;90.05;157084.84;5026100;28;20048;-76
2022/10/16 11:22:17;;;;;;;3.17;0.70;;;;;;;18.29;86.37;157117.06;5009058;28;20597;-76
2022/10/16 11:24:49;;;;;;;6.00;0.85;;;;;;;18.37;86.82;157136.41;5025730;28;20495;-78
2022/10/16 11:27:34;;;;;;;;;;;;;;;18.46;85.06;157159.59;5009617;28;20546;-76
2022/10/16 11:30:04;;;;;;;7.10;0.85;;;;;;;18.50;85.40;157168.63;5012681;28;20793;-77